Ragersville, Ohio
Current Conditions -  °F | °C
As of 3:53 AM on Wednesday 22 Oct 2014 (Local Time) from KPHD Reporting Station
Overcast Overcast  
Wind Chill: 45°   Ceiling: 1200
Heat Index: 48°   Visibility: 9mi
Dew Point: 45°   Wind: 6mph
Humidity: 89%   Direction: 330°NNW
Pressure: 30.11"   Gusts: NA
Location:  40.5178°N, 81.673°W
Report Text: KPHD 220753Z AUTO 33005KT 9SM OVC012 09/07 A3011 RMK AO2 SLP197 T00890072
Loading
Personal Weather Stations






























Interactive Weather Map New forecast layout! Learn more

10-Day Weather Forecast

Advertisements
Track Severe Weather on mobile